sensor_id;sensor_type;location;lat;lon;timestamp;P1;durP1;ratioP1;P2;durP2;ratioP2
5475;SDS011;2760;50.000;9.194;2023-06-24T00:01:03;8.67;;;5.93;;
5475;SDS011;2760;50.000;9.194;2023-06-24T00:03:31;8.37;;;6.47;;
5475;SDS011;2760;50.000;9.194;2023-06-24T00:06:02;11.27;;;5.97;;
5475;SDS011;2760;50.000;9.194;2023-06-24T00:08:29;7.23;;;6.50;;
5475;SDS011;2760;50.000;9.194;2023-06-24T00:10:59;8.50;;;5.90;;
5475;SDS011;2760;50.000;9.194;2023-06-24T00:13:27;7.10;;;6.10;;
5475;SDS011;2760;50.000;9.194;2023-06-24T00:15:55;8.10;;;6.70;;
5475;SDS011;2760;50.000;9.194;2023-06-24T00:18:23;7.97;;;6.03;;
5475;SDS011;2760;50.000;9.194;2023-06-24T00:20:54;7.57;;;6.63;;
5475;SDS011;2760;50.000;9.194;2023-06-24T00:23:21;8.27;;;5.60;;
5475;SDS011;2760;50.000;9.194;2023-06-24T00:25:51;7.00;;;5.80;;
5475;SDS011;2760;50.000;9.194;2023-06-24T00:28:18;6.73;;;6.00;;
5475;SDS011;2760;50.000;9.194;2023-06-24T00:30:46;8.03;;;7.03;;
5475;SDS011;2760;50.000;9.194;2023-06-24T00:33:13;7.23;;;6.50;;
5475;SDS011;2760;50.000;9.194;2023-06-24T00:35:43;8.00;;;6.60;;
5475;SDS011;2760;50.000;9.194;2023-06-24T00:38:09;7.60;;;6.10;;
5475;SDS011;2760;50.000;9.194;2023-06-24T00:40:37;8.30;;;6.77;;
5475;SDS011;2760;50.000;9.194;2023-06-24T00:43:04;12.60;;;6.47;;
5475;SDS011;2760;50.000;9.194;2023-06-24T00:45:33;9.50;;;6.00;;
5475;SDS011;2760;50.000;9.194;2023-06-24T00:48:00;7.17;;;6.27;;
5475;SDS011;2760;50.000;9.194;2023-06-24T00:50:28;6.80;;;6.07;;
5475;SDS011;2760;50.000;9.194;2023-06-24T00:52:56;7.33;;;6.00;;
5475;SDS011;2760;50.000;9.194;2023-06-24T00:55:23;7.33;;;6.60;;
5475;SDS011;2760;50.000;9.194;2023-06-24T00:57:54;9.97;;;6.73;;
5475;SDS011;2760;50.000;9.194;2023-06-24T01:00:22;8.97;;;6.33;;
5475;SDS011;2760;50.000;9.194;2023-06-24T01:02:49;7.77;;;6.07;;
5475;SDS011;2760;50.000;9.194;2023-06-24T01:05:17;9.37;;;6.10;;
5475;SDS011;2760;50.000;9.194;2023-06-24T01:07:48;6.50;;;5.80;;
5475;SDS011;2760;50.000;9.194;2023-06-24T01:10:21;6.73;;;6.03;;
5475;SDS011;2760;50.000;9.194;2023-06-24T01:12:50;7.97;;;6.13;;
5475;SDS011;2760;50.000;9.194;2023-06-24T01:15:17;7.70;;;6.60;;
5475;SDS011;2760;50.000;9.194;2023-06-24T01:17:49;7.23;;;6.37;;
5475;SDS011;2760;50.000;9.194;2023-06-24T01:20:23;7.57;;;6.37;;
5475;SDS011;2760;50.000;9.194;2023-06-24T01:23:04;8.77;;;6.70;;
5475;SDS011;2760;50.000;9.194;2023-06-24T01:25:46;8.00;;;7.20;;
5475;SDS011;2760;50.000;9.194;2023-06-24T01:28:34;6.47;;;5.80;;
5475;SDS011;2760;50.000;9.194;2023-06-24T01:31:32;9.93;;;5.67;;
5475;SDS011;2760;50.000;9.194;2023-06-24T01:34:06;9.47;;;6.10;;
5475;SDS011;2760;50.000;9.194;2023-06-24T01:36:41;7.93;;;6.17;;
5475;SDS011;2760;50.000;9.194;2023-06-24T01:39:13;7.23;;;5.90;;
5475;SDS011;2760;50.000;9.194;2023-06-24T01:41:47;8.47;;;6.60;;
5475;SDS011;2760;50.000;9.194;2023-06-24T01:44:19;9.63;;;6.60;;
5475;SDS011;2760;50.000;9.194;2023-06-24T01:46:48;9.67;;;6.70;;
5475;SDS011;2760;50.000;9.194;2023-06-24T01:49:18;7.57;;;6.20;;
5475;SDS011;2760;50.000;9.194;2023-06-24T01:51:48;9.53;;;6.80;;
5475;SDS011;2760;50.000;9.194;2023-06-24T01:54:17;6.57;;;5.87;;
5475;SDS011;2760;50.000;9.194;2023-06-24T01:56:47;9.43;;;6.17;;
5475;SDS011;2760;50.000;9.194;2023-06-24T01:59:18;8.40;;;6.10;;
5475;SDS011;2760;50.000;9.194;2023-06-24T02:01:48;7.30;;;6.33;;
5475;SDS011;2760;50.000;9.194;2023-06-24T02:04:17;10.03;;;6.90;;
5475;SDS011;2760;50.000;9.194;2023-06-24T02:06:46;8.00;;;7.20;;
5475;SDS011;2760;50.000;9.194;2023-06-24T02:09:14;7.30;;;6.03;;
5475;SDS011;2760;50.000;9.194;2023-06-24T02:11:44;6.77;;;5.97;;
5475;SDS011;2760;50.000;9.194;2023-06-24T02:14:14;7.87;;;6.93;;
5475;SDS011;2760;50.000;9.194;2023-06-24T02:16:43;7.70;;;6.63;;
5475;SDS011;2760;50.000;9.194;2023-06-24T02:19:14;9.07;;;6.03;;
5475;SDS011;2760;50.000;9.194;2023-06-24T02:21:45;7.50;;;5.90;;
5475;SDS011;2760;50.000;9.194;2023-06-24T02:24:13;9.10;;;7.17;;
5475;SDS011;2760;50.000;9.194;2023-06-24T02:26:40;9.30;;;6.33;;
5475;SDS011;2760;50.000;9.194;2023-06-24T02:29:08;7.77;;;6.67;;
5475;SDS011;2760;50.000;9.194;2023-06-24T02:31:37;7.20;;;6.50;;
5475;SDS011;2760;50.000;9.194;2023-06-24T02:34:05;10.77;;;6.40;;
5475;SDS011;2760;50.000;9.194;2023-06-24T02:36:36;7.93;;;6.30;;
5475;SDS011;2760;50.000;9.194;2023-06-24T02:39:04;8.13;;;6.73;;
5475;SDS011;2760;50.000;9.194;2023-06-24T02:41:31;7.63;;;6.53;;
5475;SDS011;2760;50.000;9.194;2023-06-24T02:43:58;10.33;;;7.10;;
5475;SDS011;2760;50.000;9.194;2023-06-24T02:46:26;9.40;;;6.97;;
5475;SDS011;2760;50.000;9.194;2023-06-24T02:48:56;10.50;;;6.33;;
5475;SDS011;2760;50.000;9.194;2023-06-24T02:51:24;9.83;;;6.00;;
5475;SDS011;2760;50.000;9.194;2023-06-24T02:53:53;8.43;;;6.30;;
5475;SDS011;2760;50.000;9.194;2023-06-24T02:56:34;9.03;;;7.23;;
5475;SDS011;2760;50.000;9.194;2023-06-24T02:59:07;10.90;;;7.13;;
5475;SDS011;2760;50.000;9.194;2023-06-24T03:01:34;8.80;;;6.57;;
5475;SDS011;2760;50.000;9.194;2023-06-24T03:04:04;10.70;;;6.40;;
5475;SDS011;2760;50.000;9.194;2023-06-24T03:06:32;9.27;;;7.30;;
5475;SDS011;2760;50.000;9.194;2023-06-24T03:09:04;9.43;;;7.10;;
5475;SDS011;2760;50.000;9.194;2023-06-24T03:11:40;7.90;;;6.60;;
5475;SDS011;2760;50.000;9.194;2023-06-24T03:14:08;7.97;;;7.10;;
5475;SDS011;2760;50.000;9.194;2023-06-24T03:16:40;10.80;;;6.70;;
5475;SDS011;2760;50.000;9.194;2023-06-24T03:19:13;7.87;;;6.17;;
5475;SDS011;2760;50.000;9.194;2023-06-24T03:21:41;7.13;;;6.20;;
5475;SDS011;2760;50.000;9.194;2023-06-24T03:24:15;8.50;;;6.53;;
5475;SDS011;2760;50.000;9.194;2023-06-24T03:26:46;7.97;;;6.53;;
5475;SDS011;2760;50.000;9.194;2023-06-24T03:29:16;10.93;;;6.60;;
5475;SDS011;2760;50.000;9.194;2023-06-24T03:32:06;11.13;;;6.63;;
5475;SDS011;2760;50.000;9.194;2023-06-24T03:34:34;9.33;;;6.87;;
5475;SDS011;2760;50.000;9.194;2023-06-24T03:37:01;8.70;;;6.80;;
5475;SDS011;2760;50.000;9.194;2023-06-24T03:39:31;9.53;;;6.20;;
5475;SDS011;2760;50.000;9.194;2023-06-24T03:41:58;7.50;;;6.30;;
5475;SDS011;2760;50.000;9.194;2023-06-24T03:44:26;11.00;;;6.20;;
5475;SDS011;2760;50.000;9.194;2023-06-24T03:46:53;10.70;;;7.23;;
5475;SDS011;2760;50.000;9.194;2023-06-24T03:49:21;13.13;;;7.37;;
5475;SDS011;2760;50.000;9.194;2023-06-24T03:51:48;9.37;;;7.10;;
5475;SDS011;2760;50.000;9.194;2023-06-24T03:54:15;8.10;;;6.57;;
5475;SDS011;2760;50.000;9.194;2023-06-24T03:56:43;8.17;;;6.17;;
5475;SDS011;2760;50.000;9.194;2023-06-24T03:59:10;9.63;;;6.57;;
5475;SDS011;2760;50.000;9.194;2023-06-24T04:01:37;11.30;;;7.30;;
5475;SDS011;2760;50.000;9.194;2023-06-24T04:04:04;9.37;;;7.40;;
5475;SDS011;2760;50.000;9.194;2023-06-24T04:06:32;10.90;;;6.50;;
5475;SDS011;2760;50.000;9.194;2023-06-24T04:08:59;8.03;;;6.97;;
5475;SDS011;2760;50.000;9.194;2023-06-24T04:11:27;8.53;;;7.63;;
5475;SDS011;2760;50.000;9.194;2023-06-24T04:13:57;9.33;;;6.97;;
5475;SDS011;2760;50.000;9.194;2023-06-24T04:16:24;7.63;;;6.33;;
5475;SDS011;2760;50.000;9.194;2023-06-24T04:18:53;7.50;;;6.70;;
5475;SDS011;2760;50.000;9.194;2023-06-24T04:21:20;10.57;;;6.90;;
5475;SDS011;2760;50.000;9.194;2023-06-24T04:23:49;10.33;;;6.60;;
5475;SDS011;2760;50.000;9.194;2023-06-24T04:26:17;14.33;;;6.17;;
5475;SDS011;2760;50.000;9.194;2023-06-24T04:28:44;7.47;;;6.67;;
5475;SDS011;2760;50.000;9.194;2023-06-24T04:31:13;8.53;;;6.77;;
5475;SDS011;2760;50.000;9.194;2023-06-24T04:33:40;10.03;;;7.40;;
5475;SDS011;2760;50.000;9.194;2023-06-24T04:36:07;8.53;;;7.60;;
5475;SDS011;2760;50.000;9.194;2023-06-24T04:38:35;11.03;;;7.20;;
5475;SDS011;2760;50.000;9.194;2023-06-24T04:41:03;9.70;;;7.20;;
5475;SDS011;2760;50.000;9.194;2023-06-24T04:43:30;8.90;;;6.53;;
5475;SDS011;2760;50.000;9.194;2023-06-24T04:45:57;7.03;;;6.33;;
5475;SDS011;2760;50.000;9.194;2023-06-24T04:48:26;7.47;;;6.37;;
5475;SDS011;2760;50.000;9.194;2023-06-24T04:50:54;11.50;;;8.20;;
5475;SDS011;2760;50.000;9.194;2023-06-24T04:53:23;10.80;;;6.50;;
5475;SDS011;2760;50.000;9.194;2023-06-24T04:55:50;10.53;;;6.07;;
5475;SDS011;2760;50.000;9.194;2023-06-24T04:58:17;8.00;;;6.40;;
5475;SDS011;2760;50.000;9.194;2023-06-24T05:00:44;12.23;;;8.30;;
5475;SDS011;2760;50.000;9.194;2023-06-24T05:03:11;7.80;;;6.53;;
5475;SDS011;2760;50.000;9.194;2023-06-24T05:05:40;9.63;;;6.90;;
5475;SDS011;2760;50.000;9.194;2023-06-24T05:08:07;7.60;;;6.13;;
5475;SDS011;2760;50.000;9.194;2023-06-24T05:10:34;10.03;;;6.90;;
5475;SDS011;2760;50.000;9.194;2023-06-24T05:13:02;7.33;;;6.30;;
5475;SDS011;2760;50.000;9.194;2023-06-24T05:15:29;12.07;;;8.00;;
5475;SDS011;2760;50.000;9.194;2023-06-24T05:17:56;7.10;;;6.00;;
5475;SDS011;2760;50.000;9.194;2023-06-24T05:20:25;10.50;;;6.47;;
5475;SDS011;2760;50.000;9.194;2023-06-24T05:22:54;6.90;;;5.50;;
5475;SDS011;2760;50.000;9.194;2023-06-24T05:25:21;8.03;;;6.13;;
5475;SDS011;2760;50.000;9.194;2023-06-24T05:27:49;9.30;;;6.60;;
5475;SDS011;2760;50.000;9.194;2023-06-24T05:30:16;7.90;;;6.27;;
5475;SDS011;2760;50.000;9.194;2023-06-24T05:32:43;11.20;;;6.87;;
5475;SDS011;2760;50.000;9.194;2023-06-24T05:35:11;11.57;;;6.03;;
5475;SDS011;2760;50.000;9.194;2023-06-24T05:37:39;8.47;;;6.87;;
5475;SDS011;2760;50.000;9.194;2023-06-24T05:40:21;7.90;;;6.83;;
5475;SDS011;2760;50.000;9.194;2023-06-24T05:42:48;7.40;;;6.60;;
5475;SDS011;2760;50.000;9.194;2023-06-24T05:45:17;7.43;;;6.07;;
5475;SDS011;2760;50.000;9.194;2023-06-24T05:47:45;8.40;;;6.30;;
5475;SDS011;2760;50.000;9.194;2023-06-24T05:50:12;10.97;;;7.37;;
5475;SDS011;2760;50.000;9.194;2023-06-24T05:52:39;7.23;;;6.40;;
5475;SDS011;2760;50.000;9.194;2023-06-24T05:55:06;7.03;;;5.60;;
5475;SDS011;2760;50.000;9.194;2023-06-24T05:57:37;9.23;;;6.20;;
5475;SDS011;2760;50.000;9.194;2023-06-24T06:00:04;8.50;;;6.20;;
5475;SDS011;2760;50.000;9.194;2023-06-24T06:02:37;12.20;;;5.90;;
5475;SDS011;2760;50.000;9.194;2023-06-24T06:05:06;9.57;;;6.10;;
5475;SDS011;2760;50.000;9.194;2023-06-24T06:07:33;8.10;;;6.20;;
5475;SDS011;2760;50.000;9.194;2023-06-24T06:10:06;13.37;;;6.23;;
5475;SDS011;2760;50.000;9.194;2023-06-24T06:12:40;6.20;;;5.60;;
5475;SDS011;2760;50.000;9.194;2023-06-24T06:15:08;6.20;;;5.60;;
5475;SDS011;2760;50.000;9.194;2023-06-24T06:17:37;6.93;;;5.90;;
5475;SDS011;2760;50.000;9.194;2023-06-24T06:20:06;7.13;;;5.33;;
5475;SDS011;2760;50.000;9.194;2023-06-24T06:22:34;5.97;;;5.30;;
5475;SDS011;2760;50.000;9.194;2023-06-24T06:25:04;11.47;;;5.70;;
5475;SDS011;2760;50.000;9.194;2023-06-24T06:27:32;10.07;;;6.00;;
5475;SDS011;2760;50.000;9.194;2023-06-24T06:30:02;8.10;;;6.53;;
5475;SDS011;2760;50.000;9.194;2023-06-24T06:32:30;7.63;;;5.97;;
5475;SDS011;2760;50.000;9.194;2023-06-24T06:34:57;5.97;;;5.43;;
5475;SDS011;2760;50.000;9.194;2023-06-24T06:37:25;7.30;;;5.30;;
5475;SDS011;2760;50.000;9.194;2023-06-24T06:39:52;9.13;;;5.40;;
5475;SDS011;2760;50.000;9.194;2023-06-24T06:42:19;6.87;;;6.20;;
5475;SDS011;2760;50.000;9.194;2023-06-24T06:44:47;6.13;;;5.53;;
5475;SDS011;2760;50.000;9.194;2023-06-24T06:47:16;6.33;;;5.30;;
5475;SDS011;2760;50.000;9.194;2023-06-24T06:49:44;6.80;;;5.70;;
5475;SDS011;2760;50.000;9.194;2023-06-24T06:52:11;7.30;;;5.80;;
5475;SDS011;2760;50.000;9.194;2023-06-24T06:54:38;7.40;;;6.13;;
5475;SDS011;2760;50.000;9.194;2023-06-24T06:57:06;7.73;;;5.93;;
5475;SDS011;2760;50.000;9.194;2023-06-24T06:59:33;9.90;;;6.00;;
5475;SDS011;2760;50.000;9.194;2023-06-24T07:02:00;6.17;;;5.53;;
5475;SDS011;2760;50.000;9.194;2023-06-24T07:04:29;10.20;;;6.37;;
5475;SDS011;2760;50.000;9.194;2023-06-24T07:06:57;5.97;;;5.30;;
5475;SDS011;2760;50.000;9.194;2023-06-24T07:09:24;6.60;;;5.60;;
5475;SDS011;2760;50.000;9.194;2023-06-24T07:11:54;7.43;;;5.73;;
5475;SDS011;2760;50.000;9.194;2023-06-24T07:14:22;10.17;;;6.33;;
5475;SDS011;2760;50.000;9.194;2023-06-24T07:16:49;7.90;;;6.83;;
5475;SDS011;2760;50.000;9.194;2023-06-24T07:19:17;6.70;;;6.00;;
5475;SDS011;2760;50.000;9.194;2023-06-24T07:21:47;7.00;;;5.47;;
5475;SDS011;2760;50.000;9.194;2023-06-24T07:24:14;7.23;;;5.73;;
5475;SDS011;2760;50.000;9.194;2023-06-24T07:26:41;7.00;;;6.13;;
5475;SDS011;2760;50.000;9.194;2023-06-24T07:29:10;7.60;;;6.87;;
5475;SDS011;2760;50.000;9.194;2023-06-24T07:31:37;7.73;;;6.40;;
5475;SDS011;2760;50.000;9.194;2023-06-24T07:34:05;7.23;;;6.00;;
5475;SDS011;2760;50.000;9.194;2023-06-24T07:36:33;7.83;;;7.03;;
5475;SDS011;2760;50.000;9.194;2023-06-24T07:39:02;11.53;;;7.20;;
5475;SDS011;2760;50.000;9.194;2023-06-24T07:41:30;13.07;;;7.80;;
5475;SDS011;2760;50.000;9.194;2023-06-24T07:43:59;8.87;;;6.80;;
5475;SDS011;2760;50.000;9.194;2023-06-24T07:46:26;9.80;;;6.40;;
5475;SDS011;2760;50.000;9.194;2023-06-24T07:48:55;9.83;;;7.17;;
5475;SDS011;2760;50.000;9.194;2023-06-24T07:51:22;9.30;;;6.40;;
5475;SDS011;2760;50.000;9.194;2023-06-24T07:53:56;9.57;;;6.73;;
5475;SDS011;2760;50.000;9.194;2023-06-24T07:56:28;8.23;;;6.60;;
5475;SDS011;2760;50.000;9.194;2023-06-24T07:58:56;8.30;;;6.47;;
5475;SDS011;2760;50.000;9.194;2023-06-24T08:01:23;8.53;;;6.80;;
5475;SDS011;2760;50.000;9.194;2023-06-24T08:03:50;9.43;;;6.60;;
5475;SDS011;2760;50.000;9.194;2023-06-24T08:06:18;9.90;;;6.90;;
5475;SDS011;2760;50.000;9.194;2023-06-24T08:08:59;9.03;;;6.77;;
5475;SDS011;2760;50.000;9.194;2023-06-24T08:11:28;10.20;;;6.70;;
5475;SDS011;2760;50.000;9.194;2023-06-24T08:13:56;17.07;;;6.97;;
5475;SDS011;2760;50.000;9.194;2023-06-24T08:16:27;10.37;;;6.87;;
5475;SDS011;2760;50.000;9.194;2023-06-24T08:18:56;7.83;;;6.90;;
5475;SDS011;2760;50.000;9.194;2023-06-24T08:21:24;10.33;;;7.23;;
5475;SDS011;2760;50.000;9.194;2023-06-24T08:23:51;10.77;;;6.87;;
5475;SDS011;2760;50.000;9.194;2023-06-24T08:26:20;8.93;;;7.40;;
5475;SDS011;2760;50.000;9.194;2023-06-24T08:31:36;6.57;;;5.67;;
5475;SDS011;2760;50.000;9.194;2023-06-24T08:34:04;6.83;;;6.13;;
5475;SDS011;2760;50.000;9.194;2023-06-24T08:36:32;7.30;;;5.80;;
5475;SDS011;2760;50.000;9.194;2023-06-24T08:38:59;6.70;;;5.83;;
5475;SDS011;2760;50.000;9.194;2023-06-24T08:41:28;9.70;;;6.40;;
5475;SDS011;2760;50.000;9.194;2023-06-24T08:44:01;11.20;;;5.40;;
5475;SDS011;2760;50.000;9.194;2023-06-24T08:46:44;8.37;;;5.47;;
5475;SDS011;2760;50.000;9.194;2023-06-24T08:49:15;11.93;;;5.40;;
5475;SDS011;2760;50.000;9.194;2023-06-24T08:51:53;8.43;;;5.50;;
5475;SDS011;2760;50.000;9.194;2023-06-24T08:54:26;7.20;;;4.80;;
5475;SDS011;2760;50.000;9.194;2023-06-24T08:56:53;5.53;;;4.70;;
5475;SDS011;2760;50.000;9.194;2023-06-24T08:59:22;19.90;;;5.30;;
5475;SDS011;2760;50.000;9.194;2023-06-24T09:01:53;9.27;;;5.37;;
5475;SDS011;2760;50.000;9.194;2023-06-24T09:04:23;6.23;;;5.20;;
5475;SDS011;2760;50.000;9.194;2023-06-24T09:06:57;4.80;;;4.30;;
5475;SDS011;2760;50.000;9.194;2023-06-24T09:09:41;6.87;;;5.50;;
5475;SDS011;2760;50.000;9.194;2023-06-24T09:12:10;9.63;;;5.10;;
5475;SDS011;2760;50.000;9.194;2023-06-24T09:14:47;5.17;;;4.60;;
5475;SDS011;2760;50.000;9.194;2023-06-24T09:17:30;9.80;;;5.40;;
5475;SDS011;2760;50.000;9.194;2023-06-24T09:20:03;6.30;;;5.30;;
5475;SDS011;2760;50.000;9.194;2023-06-24T09:22:31;5.63;;;5.00;;
5475;SDS011;2760;50.000;9.194;2023-06-24T09:25:03;6.23;;;4.87;;
5475;SDS011;2760;50.000;9.194;2023-06-24T09:27:40;11.47;;;7.80;;
5475;SDS011;2760;50.000;9.194;2023-06-24T09:30:18;8.60;;;6.40;;
5475;SDS011;2760;50.000;9.194;2023-06-24T09:32:49;7.60;;;5.33;;
5475;SDS011;2760;50.000;9.194;2023-06-24T09:35:18;6.40;;;4.80;;
5475;SDS011;2760;50.000;9.194;2023-06-24T09:37:53;6.97;;;5.63;;
5475;SDS011;2760;50.000;9.194;2023-06-24T09:40:37;8.93;;;6.03;;
5475;SDS011;2760;50.000;9.194;2023-06-24T09:43:19;7.03;;;5.37;;
5475;SDS011;2760;50.000;9.194;2023-06-24T09:45:48;7.27;;;5.47;;
5475;SDS011;2760;50.000;9.194;2023-06-24T09:48:20;5.77;;;5.27;;
5475;SDS011;2760;50.000;9.194;2023-06-24T09:51:03;7.50;;;5.73;;
5475;SDS011;2760;50.000;9.194;2023-06-24T09:53:35;7.90;;;5.87;;
5475;SDS011;2760;50.000;9.194;2023-06-24T09:56:08;8.67;;;5.37;;
5475;SDS011;2760;50.000;9.194;2023-06-24T09:58:39;8.63;;;5.80;;
5475;SDS011;2760;50.000;9.194;2023-06-24T10:01:09;5.60;;;5.10;;
5475;SDS011;2760;50.000;9.194;2023-06-24T10:03:44;5.37;;;4.87;;
5475;SDS011;2760;50.000;9.194;2023-06-24T10:06:13;5.93;;;5.10;;
5475;SDS011;2760;50.000;9.194;2023-06-24T10:08:46;7.00;;;5.10;;
5475;SDS011;2760;50.000;9.194;2023-06-24T10:11:19;5.90;;;5.30;;
5475;SDS011;2760;50.000;9.194;2023-06-24T10:13:47;6.63;;;5.80;;
5475;SDS011;2760;50.000;9.194;2023-06-24T10:16:29;5.23;;;4.70;;
5475;SDS011;2760;50.000;9.194;2023-06-24T10:19:16;10.70;;;6.10;;
5475;SDS011;2760;50.000;9.194;2023-06-24T10:21:49;5.30;;;4.57;;
5475;SDS011;2760;50.000;9.194;2023-06-24T10:24:28;5.43;;;4.93;;
5475;SDS011;2760;50.000;9.194;2023-06-24T10:27:00;10.03;;;5.53;;
5475;SDS011;2760;50.000;9.194;2023-06-24T10:29:33;7.83;;;4.70;;
5475;SDS011;2760;50.000;9.194;2023-06-24T10:32:05;5.83;;;5.23;;
5475;SDS011;2760;50.000;9.194;2023-06-24T10:34:39;10.67;;;5.13;;
5475;SDS011;2760;50.000;9.194;2023-06-24T10:37:11;7.17;;;4.70;;
5475;SDS011;2760;50.000;9.194;2023-06-24T10:39:50;7.50;;;5.47;;
5475;SDS011;2760;50.000;9.194;2023-06-24T10:45:13;6.40;;;5.17;;
5475;SDS011;2760;50.000;9.194;2023-06-24T10:47:46;9.60;;;5.30;;
5475;SDS011;2760;50.000;9.194;2023-06-24T10:50:18;5.33;;;4.83;;
5475;SDS011;2760;50.000;9.194;2023-06-24T10:52:47;5.60;;;4.73;;
5475;SDS011;2760;50.000;9.194;2023-06-24T10:55:21;4.50;;;4.10;;
5475;SDS011;2760;50.000;9.194;2023-06-24T10:57:51;8.57;;;4.20;;
5475;SDS011;2760;50.000;9.194;2023-06-24T11:00:20;5.97;;;4.80;;
5475;SDS011;2760;50.000;9.194;2023-06-24T11:02:48;5.33;;;4.83;;
5475;SDS011;2760;50.000;9.194;2023-06-24T11:05:17;7.70;;;5.43;;
5475;SDS011;2760;50.000;9.194;2023-06-24T11:07:46;5.90;;;4.77;;
5475;SDS011;2760;50.000;9.194;2023-06-24T11:10:13;5.50;;;4.80;;
5475;SDS011;2760;50.000;9.194;2023-06-24T11:12:41;6.20;;;4.83;;
5475;SDS011;2760;50.000;9.194;2023-06-24T11:15:13;6.37;;;5.30;;
5475;SDS011;2760;50.000;9.194;2023-06-24T11:17:45;7.20;;;5.10;;
5475;SDS011;2760;50.000;9.194;2023-06-24T11:20:13;5.90;;;5.30;;
5475;SDS011;2760;50.000;9.194;2023-06-24T11:22:43;7.00;;;5.00;;
5475;SDS011;2760;50.000;9.194;2023-06-24T11:25:14;7.00;;;4.97;;
5475;SDS011;2760;50.000;9.194;2023-06-24T11:27:43;9.77;;;5.57;;
5475;SDS011;2760;50.000;9.194;2023-06-24T11:30:10;5.60;;;5.10;;
5475;SDS011;2760;50.000;9.194;2023-06-24T11:32:39;7.10;;;5.47;;
5475;SDS011;2760;50.000;9.194;2023-06-24T11:35:08;5.43;;;4.80;;
5475;SDS011;2760;50.000;9.194;2023-06-24T11:37:40;10.73;;;5.40;;
5475;SDS011;2760;50.000;9.194;2023-06-24T11:40:12;7.93;;;4.30;;
5475;SDS011;2760;50.000;9.194;2023-06-24T11:42:42;7.10;;;4.60;;
5475;SDS011;2760;50.000;9.194;2023-06-24T11:45:11;6.23;;;4.77;;
5475;SDS011;2760;50.000;9.194;2023-06-24T11:47:40;10.70;;;4.90;;
5475;SDS011;2760;50.000;9.194;2023-06-24T11:50:08;4.90;;;3.80;;
5475;SDS011;2760;50.000;9.194;2023-06-24T11:52:40;4.90;;;4.40;;
5475;SDS011;2760;50.000;9.194;2023-06-24T11:55:15;4.33;;;3.43;;
5475;SDS011;2760;50.000;9.194;2023-06-24T11:57:48;7.30;;;4.43;;
5475;SDS011;2760;50.000;9.194;2023-06-24T12:00:30;4.33;;;3.93;;
5475;SDS011;2760;50.000;9.194;2023-06-24T12:03:00;6.03;;;4.00;;
5475;SDS011;2760;50.000;9.194;2023-06-24T12:05:29;4.33;;;3.93;;
5475;SDS011;2760;50.000;9.194;2023-06-24T12:07:58;5.83;;;4.00;;
5475;SDS011;2760;50.000;9.194;2023-06-24T12:10:28;4.77;;;4.27;;
5475;SDS011;2760;50.000;9.194;2023-06-24T12:12:57;6.80;;;4.40;;
5475;SDS011;2760;50.000;9.194;2023-06-24T12:15:25;4.50;;;4.10;;
5475;SDS011;2760;50.000;9.194;2023-06-24T12:17:53;5.97;;;3.83;;
5475;SDS011;2760;50.000;9.194;2023-06-24T12:20:34;5.07;;;4.10;;
5475;SDS011;2760;50.000;9.194;2023-06-24T12:23:15;4.63;;;3.50;;
5475;SDS011;2760;50.000;9.194;2023-06-24T12:28:57;4.50;;;3.63;;
5475;SDS011;2760;50.000;9.194;2023-06-24T12:31:25;4.77;;;3.97;;
5475;SDS011;2760;50.000;9.194;2023-06-24T12:34:04;4.17;;;3.43;;
5475;SDS011;2760;50.000;9.194;2023-06-24T12:36:31;3.30;;;3.00;;
5475;SDS011;2760;50.000;9.194;2023-06-24T12:39:12;4.37;;;3.97;;
5475;SDS011;2760;50.000;9.194;2023-06-24T12:41:53;4.80;;;3.77;;
5475;SDS011;2760;50.000;9.194;2023-06-24T12:47:20;3.97;;;3.30;;
5475;SDS011;2760;50.000;9.194;2023-06-24T12:49:48;4.17;;;3.80;;
5475;SDS011;2760;50.000;9.194;2023-06-24T12:52:29;4.17;;;3.70;;
5475;SDS011;2760;50.000;9.194;2023-06-24T12:55:10;5.40;;;3.47;;
5475;SDS011;2760;50.000;9.194;2023-06-24T12:57:41;4.67;;;3.77;;
5475;SDS011;2760;50.000;9.194;2023-06-24T13:00:17;5.27;;;3.63;;
5475;SDS011;2760;50.000;9.194;2023-06-24T13:02:49;3.93;;;3.53;;
5475;SDS011;2760;50.000;9.194;2023-06-24T13:05:21;5.43;;;3.97;;
5475;SDS011;2760;50.000;9.194;2023-06-24T13:07:49;6.43;;;3.93;;
5475;SDS011;2760;50.000;9.194;2023-06-24T13:10:30;4.57;;;3.53;;
5475;SDS011;2760;50.000;9.194;2023-06-24T13:12:58;4.63;;;3.83;;
5475;SDS011;2760;50.000;9.194;2023-06-24T13:15:29;4.70;;;3.80;;
5475;SDS011;2760;50.000;9.194;2023-06-24T13:17:58;4.90;;;3.70;;
5475;SDS011;2760;50.000;9.194;2023-06-24T13:20:40;5.03;;;3.53;;
5475;SDS011;2760;50.000;9.194;2023-06-24T13:23:07;3.70;;;3.20;;
5475;SDS011;2760;50.000;9.194;2023-06-24T13:25:48;9.80;;;3.80;;
5475;SDS011;2760;50.000;9.194;2023-06-24T13:28:29;5.10;;;3.10;;
5475;SDS011;2760;50.000;9.194;2023-06-24T13:31:00;4.50;;;4.00;;
5475;SDS011;2760;50.000;9.194;2023-06-24T13:33:41;4.30;;;3.43;;
5475;SDS011;2760;50.000;9.194;2023-06-24T13:36:25;4.40;;;3.67;;
5475;SDS011;2760;50.000;9.194;2023-06-24T13:39:02;5.13;;;4.37;;
5475;SDS011;2760;50.000;9.194;2023-06-24T13:41:44;7.27;;;3.50;;
5475;SDS011;2760;50.000;9.194;2023-06-24T13:44:19;4.67;;;3.63;;
5475;SDS011;2760;50.000;9.194;2023-06-24T13:46:54;4.90;;;4.20;;
5475;SDS011;2760;50.000;9.194;2023-06-24T13:49:22;4.13;;;3.57;;
5475;SDS011;2760;50.000;9.194;2023-06-24T13:51:49;3.97;;;3.47;;
5475;SDS011;2760;50.000;9.194;2023-06-24T13:54:18;4.33;;;3.73;;
5475;SDS011;2760;50.000;9.194;2023-06-24T13:56:45;5.40;;;3.30;;
5475;SDS011;2760;50.000;9.194;2023-06-24T13:59:12;5.70;;;4.20;;
5475;SDS011;2760;50.000;9.194;2023-06-24T14:01:41;4.10;;;3.80;;
5475;SDS011;2760;50.000;9.194;2023-06-24T14:04:23;4.13;;;3.33;;
5475;SDS011;2760;50.000;9.194;2023-06-24T14:06:51;4.20;;;3.80;;
5475;SDS011;2760;50.000;9.194;2023-06-24T14:09:18;5.70;;;4.07;;
5475;SDS011;2760;50.000;9.194;2023-06-24T14:11:47;3.13;;;2.70;;
5475;SDS011;2760;50.000;9.194;2023-06-24T14:14:15;3.60;;;3.30;;
5475;SDS011;2760;50.000;9.194;2023-06-24T14:16:43;4.07;;;3.60;;
5475;SDS011;2760;50.000;9.194;2023-06-24T14:19:14;3.30;;;3.00;;
5475;SDS011;2760;50.000;9.194;2023-06-24T14:21:46;4.10;;;3.50;;
5475;SDS011;2760;50.000;9.194;2023-06-24T14:24:14;5.73;;;3.50;;
5475;SDS011;2760;50.000;9.194;2023-06-24T14:26:43;3.93;;;3.40;;
5475;SDS011;2760;50.000;9.194;2023-06-24T14:29:14;3.83;;;3.30;;
5475;SDS011;2760;50.000;9.194;2023-06-24T14:31:42;3.60;;;3.30;;
5475;SDS011;2760;50.000;9.194;2023-06-24T14:34:09;3.73;;;3.43;;
5475;SDS011;2760;50.000;9.194;2023-06-24T14:36:37;4.03;;;3.47;;
5475;SDS011;2760;50.000;9.194;2023-06-24T14:39:06;6.13;;;3.83;;
5475;SDS011;2760;50.000;9.194;2023-06-24T14:41:34;4.23;;;3.83;;
5475;SDS011;2760;50.000;9.194;2023-06-24T14:44:02;3.93;;;3.53;;
5475;SDS011;2760;50.000;9.194;2023-06-24T14:46:30;4.30;;;3.80;;
5475;SDS011;2760;50.000;9.194;2023-06-24T14:48:59;5.73;;;3.67;;
5475;SDS011;2760;50.000;9.194;2023-06-24T14:51:41;3.80;;;3.50;;
5475;SDS011;2760;50.000;9.194;2023-06-24T14:54:11;4.40;;;4.00;;
5475;SDS011;2760;50.000;9.194;2023-06-24T14:56:41;6.30;;;3.47;;
5475;SDS011;2760;50.000;9.194;2023-06-24T14:59:13;3.90;;;3.60;;
5475;SDS011;2760;50.000;9.194;2023-06-24T15:01:45;7.73;;;3.80;;
5475;SDS011;2760;50.000;9.194;2023-06-24T15:04:13;4.80;;;3.10;;
5475;SDS011;2760;50.000;9.194;2023-06-24T15:06:41;4.33;;;3.93;;
5475;SDS011;2760;50.000;9.194;2023-06-24T15:09:14;3.90;;;3.60;;
5475;SDS011;2760;50.000;9.194;2023-06-24T15:11:43;9.00;;;4.10;;
5475;SDS011;2760;50.000;9.194;2023-06-24T15:14:11;3.80;;;3.50;;
5475;SDS011;2760;50.000;9.194;2023-06-24T15:16:39;4.00;;;3.70;;
5475;SDS011;2760;50.000;9.194;2023-06-24T15:19:06;4.27;;;3.70;;
5475;SDS011;2760;50.000;9.194;2023-06-24T15:21:38;5.00;;;3.63;;
5475;SDS011;2760;50.000;9.194;2023-06-24T15:24:05;3.87;;;3.57;;
5475;SDS011;2760;50.000;9.194;2023-06-24T15:26:43;3.50;;;3.20;;
5475;SDS011;2760;50.000;9.194;2023-06-24T15:29:11;4.60;;;3.87;;
5475;SDS011;2760;50.000;9.194;2023-06-24T15:31:38;4.60;;;3.90;;
5475;SDS011;2760;50.000;9.194;2023-06-24T15:34:06;4.00;;;3.70;;
5475;SDS011;2760;50.000;9.194;2023-06-24T15:36:43;4.27;;;3.60;;
5475;SDS011;2760;50.000;9.194;2023-06-24T15:39:11;4.20;;;3.80;;
5475;SDS011;2760;50.000;9.194;2023-06-24T15:41:39;5.63;;;4.07;;
5475;SDS011;2760;50.000;9.194;2023-06-24T15:44:13;4.67;;;3.80;;